Time;durP1;ratioP1;P1;durP2;ratioP2;P2;SDS_P1;SDS_P2;PMS_P1;PMS_P2;Temp;Humidity;BMP_temperature;BMP_pressure;BME280_temperature;BME280_humidity;BME280_pressure;Samples;Min_cycle;Max_cycle;Signal;HPM_P1;HPM_P2
2023/05/28 00:00:46;;;;;;;17.10;6.95;;;11.40;99.90;;;;;;4878693;29;20052;-86
2023/05/28 00:03:31;;;;;;;15.55;6.47;;;12.00;99.90;;;;;;4885033;23;20053;-87
2023/05/28 00:09:48;;;;;;;21.55;6.28;;;11.10;99.90;;;;;;4879831;29;20068;-87
2023/05/28 00:12:14;;;;;;;18.60;6.22;;;11.30;99.90;;;;;;4878654;29;20525;-87
2023/05/28 00:14:40;;;;;;;20.70;6.60;;;12.30;99.90;;;;;;4880201;29;20124;-87
2023/05/28 00:17:21;;;;;;;18.17;6.43;;;11.20;99.90;;;;;;4877806;29;20061;-87
2023/05/28 00:19:53;;;;;;;18.20;6.70;;;11.60;99.90;;;;;;4878770;29;20041;-87
2023/05/28 00:22:31;;;;;;;19.90;6.43;;;12.10;99.90;;;;;;4879531;29;20513;-87
2023/05/28 00:24:57;;;;;;;19.45;6.30;;;10.90;99.90;;;;;;4883023;29;20044;-87
2023/05/28 00:27:31;;;;;;;17.20;6.80;;;10.80;99.90;;;;;;4880671;29;20113;-87
2023/05/28 00:29:57;;;;;;;16.73;6.22;;;10.80;99.90;;;;;;4879968;29;20077;-87
2023/05/28 00:32:40;;;;;;;15.80;5.97;;;11.30;99.90;;;;;;4877351;29;20076;-87
2023/05/28 00:35:06;;;;;;;16.13;5.73;;;10.20;99.90;;;;;;4878515;29;20066;-86
2023/05/28 00:37:47;;;;;;;17.70;5.80;;;10.70;99.90;;;;;;4879866;29;20049;-87
2023/05/28 00:40:17;;;;;;;18.20;6.28;;;11.80;99.90;;;;;;4877512;29;20041;-87
2023/05/28 00:42:55;;;;;;;16.52;5.80;;;11.40;99.90;;;;;;4879842;29;20053;-87
2023/05/28 00:45:21;;;;;;;16.67;5.95;;;10.80;99.90;;;;;;4869067;29;20040;-87
2023/05/28 00:47:47;;;;;;;16.65;5.78;;;11.80;99.90;;;;;;4879290;29;20097;-87
2023/05/28 00:50:34;;;;;;;17.75;6.22;;;11.50;99.90;;;;;;4877714;29;20041;-87
2023/05/28 00:53:01;;;;;;;21.52;6.53;;;10.00;99.90;;;;;;4878845;29;20124;-87
2023/05/28 00:55:29;;;;;;;15.38;6.15;;;11.20;99.90;;;;;;4878992;29;20049;-86
2023/05/28 00:58:05;;;;;;;15.52;5.97;;;10.70;99.90;;;;;;4877873;29;20561;-87
2023/05/28 01:00:32;;;;;;;17.17;5.80;;;10.30;99.90;;;;;;4877337;29;20051;-87
2023/05/28 01:03:24;;;;;;;15.73;5.93;;;10.30;99.90;;;;;;4875978;29;20060;-87
2023/05/28 01:06:07;;;;;;;17.85;6.40;;;10.20;99.90;;;;;;4877389;29;20064;-86
2023/05/28 01:08:40;;;;;;;21.70;6.13;;;10.20;99.90;;;;;;4877853;29;20052;-87
2023/05/28 01:11:15;;;;;;;19.63;6.25;;;10.10;99.90;;;;;;4877646;29;20485;-87
2023/05/28 01:13:41;;;;;;;17.27;6.18;;;10.20;99.90;;;;;;4878882;29;20088;-86
2023/05/28 01:16:08;;;;;;;16.90;6.18;;;10.20;99.90;;;;;;4877512;29;20176;-86
2023/05/28 01:18:34;;;;;;;15.57;6.22;;;10.20;99.90;;;;;;4878960;29;20498;-86
2023/05/28 01:21:16;;;;;;;20.85;6.68;;;11.10;99.90;;;;;;4877375;29;20153;-87
2023/05/28 01:23:46;;;;;;;19.55;6.63;;;9.90;99.90;;;;;;4879384;29;20067;-87
2023/05/28 01:26:14;;;;;;;15.70;5.68;;;10.80;99.90;;;;;;4877537;29;20045;-86
2023/05/28 01:28:44;;;;;;;20.55;7.07;;;9.80;99.90;;;;;;4876917;29;20080;-87
2023/05/28 01:31:10;;;;;;;17.27;6.30;;;10.30;99.90;;;;;;4877303;29;20088;-87
2023/05/28 01:33:41;;;;;;;16.38;6.18;;;10.70;99.90;;;;;;4878926;29;20041;-87
2023/05/28 01:36:15;;;;;;;19.23;7.45;;;10.20;99.90;;;;;;4876636;29;20493;-86
2023/05/28 01:39:06;;;;;;;17.35;6.25;;;9.80;99.90;;;;;;4868521;23;20506;-86
2023/05/28 01:41:45;;;;;;;19.45;6.10;;;9.50;99.90;;;;;;4859266;29;20093;-87
2023/05/28 01:44:18;;;;;;;19.88;7.10;;;11.00;99.90;;;;;;4874186;29;20049;-86
2023/05/28 01:46:49;;;;;;;18.83;6.45;;;9.70;99.90;;;;;;4859360;29;20078;-86
2023/05/28 01:49:15;;;;;;;18.27;6.78;;;10.20;99.90;;;;;;4857897;29;20045;-86
2023/05/28 01:51:53;;;;;;;18.00;6.53;;;9.60;99.90;;;;;;4858933;29;20105;-87
2023/05/28 01:54:34;;;;;;;18.95;6.30;;;10.20;99.90;;;;;;4860502;29;20061;-86
2023/05/28 01:57:18;;;;;;;19.75;6.47;;;9.40;99.90;;;;;;4860797;29;20042;-86
2023/05/28 01:59:43;;;;;;;15.80;6.45;;;9.90;99.90;;;;;;4874347;29;20061;-86
2023/05/28 02:02:28;;;;;;;19.38;6.38;;;10.50;99.90;;;;;;4844754;29;20069;-86
2023/05/28 02:04:54;;;;;;;18.10;6.43;;;9.60;99.90;;;;;;4840761;29;20129;-87
2023/05/28 02:07:35;;;;;;;24.45;7.10;;;9.60;99.90;;;;;;4859478;29;20495;-87
2023/05/28 02:10:00;;;;;;;16.88;6.13;;;10.70;99.90;;;;;;4859324;29;20108;-87
2023/05/28 02:12:29;;;;;;;16.20;6.35;;;10.00;99.90;;;;;;4860161;29;20129;-87
2023/05/28 02:14:56;;;;;;;19.92;6.93;;;10.50;99.90;;;;;;4859749;29;20398;-87
2023/05/28 02:17:24;;;;;;;19.50;6.28;;;10.70;99.90;;;;;;4857728;29;20069;-87
2023/05/28 02:19:56;;;;;;;17.80;6.45;;;10.10;99.90;;;;;;4860133;29;20045;-87
2023/05/28 02:22:31;;;;;;;15.30;6.50;;;10.00;99.90;;;;;;4858687;29;20062;-86
2023/05/28 02:24:57;;;;;;;19.08;6.72;;;9.90;99.90;;;;;;4862370;29;20049;-87
2023/05/28 02:27:23;;;;;;;20.17;6.65;;;10.40;99.90;;;;;;4863511;29;20045;-87
2023/05/28 02:29:48;;;;;;;18.20;6.57;;;10.50;99.90;;;;;;4863755;29;20053;-87
2023/05/28 02:32:14;;;;;;;19.05;6.78;;;10.70;99.90;;;;;;4876610;29;20062;-86
2023/05/28 02:34:40;;;;;;;19.60;6.53;;;9.50;99.90;;;;;;4863646;29;20112;-86
2023/05/28 02:37:06;;;;;;;17.17;6.90;;;9.80;99.90;;;;;;4877584;29;20505;-86
2023/05/28 02:39:31;;;;;;;17.08;7.43;;;10.10;99.90;;;;;;4861694;29;20082;-86
2023/05/28 02:41:57;;;;;;;20.75;7.13;;;10.30;99.90;;;;;;4877743;29;20049;-86
2023/05/28 02:44:23;;;;;;;18.83;6.50;;;10.20;99.90;;;;;;4863106;29;20041;-87
2023/05/28 02:46:48;;;;;;;20.00;6.90;;;9.30;99.90;;;;;;4877124;29;20497;-86
2023/05/28 02:49:14;;;;;;;22.20;7.53;;;10.40;99.90;;;;;;4877048;29;20493;-86
2023/05/28 02:51:40;;;;;;;21.50;7.43;;;10.00;99.90;;;;;;4862483;29;20046;-87
2023/05/28 02:54:05;;;;;;;20.33;7.03;;;10.70;99.90;;;;;;4861631;29;20037;-86
2023/05/28 02:56:31;;;;;;;19.75;7.38;;;10.40;99.90;;;;;;4877099;29;20057;-86
2023/05/28 02:58:56;;;;;;;16.88;7.35;;;9.60;99.90;;;;;;4862611;29;20132;-87
2023/05/28 03:01:22;;;;;;;22.73;6.72;;;10.90;99.90;;;;;;4862597;29;20041;-86
2023/05/28 03:03:48;;;;;;;14.75;6.63;;;10.10;99.90;;;;;;4877182;29;20047;-87
2023/05/28 03:06:14;;;;;;;22.27;6.90;;;9.60;99.90;;;;;;4861787;29;20505;-87
2023/05/28 03:08:40;;;;;;;17.77;7.07;;;10.30;99.90;;;;;;4861722;29;20056;-87
2023/05/28 03:11:06;;;;;;;19.58;7.40;;;10.30;99.90;;;;;;4876611;29;20051;-87
2023/05/28 03:13:31;;;;;;;18.70;6.68;;;10.60;99.90;;;;;;4861138;29;20060;-87
2023/05/28 03:15:58;;;;;;;19.00;6.82;;;10.50;99.90;;;;;;4861947;29;20053;-86
2023/05/28 03:18:24;;;;;;;16.67;7.07;;;9.70;99.90;;;;;;4862435;29;20042;-87
2023/05/28 03:20:55;;;;;;;20.00;6.72;;;10.20;99.90;;;;;;4862066;29;20133;-86
2023/05/28 03:23:20;;;;;;;17.33;6.72;;;9.70;99.90;;;;;;4861288;29;20045;-87
2023/05/28 03:25:46;;;;;;;22.17;7.35;;;10.40;99.90;;;;;;4864251;29;20117;-86
2023/05/28 03:28:32;;;;;;;17.27;7.03;;;10.20;99.90;;;;;;4860633;29;20053;-86
2023/05/28 03:30:57;;;;;;;18.35;7.55;;;9.70;99.90;;;;;;4860991;29;20109;-87
2023/05/28 03:33:23;;;;;;;20.52;7.45;;;10.90;99.90;;;;;;4861880;29;20045;-86
2023/05/28 03:35:49;;;;;;;20.75;7.63;;;10.00;99.90;;;;;;4861731;29;20037;-86
2023/05/28 03:38:17;;;;;;;19.65;6.82;;;10.40;99.90;;;;;;4860604;29;20058;-86
2023/05/28 03:40:42;;;;;;;21.25;7.13;;;9.70;99.90;;;;;;4861482;29;20072;-86
2023/05/28 03:43:20;;;;;;;19.50;7.50;;;9.70;99.90;;;;;;4861630;29;20037;-87
2023/05/28 03:45:46;;;;;;;18.27;7.13;;;10.00;99.90;;;;;;4862329;29;20060;-88
2023/05/28 03:48:27;;;;;;;20.83;6.82;;;10.00;99.90;;;;;;4874671;29;20038;-86
2023/05/28 03:50:52;;;;;;;20.75;7.13;;;10.70;99.90;;;;;;4862009;29;20524;-87
2023/05/28 03:53:18;;;;;;;17.70;6.93;;;10.60;99.90;;;;;;4875532;29;20045;-86
2023/05/28 03:55:44;;;;;;;22.48;7.22;;;10.50;99.90;;;;;;4860673;29;20053;-83
2023/05/28 03:58:14;;;;;;;19.85;7.10;;;11.00;99.90;;;;;;4860571;29;20136;-82
2023/05/28 04:00:40;;;;;;;21.23;6.47;;;11.00;99.90;;;;;;4860841;29;20045;-82
2023/05/28 04:03:14;;;;;;;19.17;7.05;;;10.50;99.90;;;;;;4857941;29;20117;-82
2023/05/28 04:05:40;;;;;;;19.88;7.45;;;9.90;99.90;;;;;;4853732;29;20066;-82
2023/05/28 04:08:05;;;;;;;20.75;6.80;;;10.80;99.90;;;;;;4861008;29;20049;-82
2023/05/28 04:10:31;;;;;;;18.38;7.43;;;10.40;99.90;;;;;;4859529;29;20405;-81
2023/05/28 04:12:57;;;;;;;18.30;6.95;;;10.20;99.90;;;;;;4843981;29;20443;-81
2023/05/28 04:15:22;;;;;;;19.77;7.05;;;10.00;99.90;;;;;;4843001;29;20132;-84
2023/05/28 04:17:48;;;;;;;17.77;7.30;;;11.20;99.90;;;;;;4870560;29;20045;-83
2023/05/28 04:20:13;;;;;;;22.25;7.22;;;10.50;99.90;;;;;;4859506;29;20402;-81
2023/05/28 04:22:39;;;;;;;19.27;7.10;;;10.10;99.90;;;;;;4859540;29;20105;-82
2023/05/28 04:25:05;;;;;;;18.38;6.80;;;11.20;99.90;;;;;;4860753;29;20104;-81
2023/05/28 04:27:31;;;;;;;21.98;7.50;;;10.20;99.90;;;;;;4860166;29;20053;-83
2023/05/28 04:29:57;;;;;;;19.92;7.75;;;11.00;99.90;;;;;;4859562;29;20057;-84
2023/05/28 04:32:23;;;;;;;21.35;7.07;;;10.50;99.90;;;;;;4859715;29;20462;-82
2023/05/28 04:34:51;;;;;;;21.67;7.05;;;10.30;99.90;;;;;;4875067;29;20061;-82
2023/05/28 04:37:17;;;;;;;19.48;7.25;;;10.30;99.90;;;;;;4860199;29;20909;-82
2023/05/28 04:39:43;;;;;;;17.90;6.65;;;10.30;99.90;;;;;;4861531;29;20046;-82
2023/05/28 04:42:13;;;;;;;22.38;7.40;;;11.10;99.90;;;;;;4861345;29;20409;-82
2023/05/28 04:44:40;;;;;;;22.30;7.50;;;10.40;99.90;;;;;;4860526;29;20053;-82
2023/05/28 04:47:06;;;;;;;26.27;7.28;;;10.40;99.90;;;;;;4859323;29;20046;-82
2023/05/28 04:49:31;;;;;;;23.75;6.82;;;10.40;99.90;;;;;;4861301;29;20150;-82
2023/05/28 04:51:57;;;;;;;18.80;7.57;;;10.40;99.90;;;;;;4859234;29;20132;-82
2023/05/28 04:54:23;;;;;;;18.42;6.95;;;11.10;99.90;;;;;;4875446;29;20056;-82
2023/05/28 04:56:49;;;;;;;23.00;7.03;;;10.40;99.90;;;;;;4875624;29;20050;-82
2023/05/28 04:59:14;;;;;;;20.63;7.45;;;10.40;99.90;;;;;;4858730;29;20053;-82
2023/05/28 05:01:41;;;;;;;19.05;6.90;;;10.50;99.90;;;;;;4859783;29;20049;-82
2023/05/28 05:04:07;;;;;;;18.27;7.15;;;10.50;99.90;;;;;;4859353;29;20057;-82
2023/05/28 05:06:33;;;;;;;17.80;6.85;;;10.50;99.90;;;;;;4859262;29;20110;-82
2023/05/28 05:08:59;;;;;;;19.17;7.35;;;10.50;99.90;;;;;;4875128;29;20049;-82
2023/05/28 05:11:28;;;;;;;20.17;7.45;;;10.60;99.90;;;;;;4860586;29;20525;-82
2023/05/28 05:13:54;;;;;;;19.98;6.97;;;11.60;99.90;;;;;;4860093;29;20049;-82
2023/05/28 05:16:20;;;;;;;19.25;7.32;;;10.70;99.90;;;;;;4860655;29;20061;-82
2023/05/28 05:18:47;;;;;;;21.55;7.03;;;10.70;99.90;;;;;;4860996;29;20052;-82
2023/05/28 05:21:13;;;;;;;15.73;6.97;;;10.80;99.90;;;;;;4859856;29;20109;-82
2023/05/28 05:23:40;;;;;;;21.02;7.68;;;10.90;99.90;;;;;;4860739;29;20489;-82
2023/05/28 05:26:07;;;;;;;21.80;7.60;;;11.00;99.90;;;;;;4859632;29;20057;-82
2023/05/28 05:28:32;;;;;;;18.23;6.75;;;11.10;99.90;;;;;;4858455;29;20482;-82
2023/05/28 05:30:58;;;;;;;20.73;7.63;;;11.10;99.90;;;;;;4875107;29;20060;-82
2023/05/28 05:33:23;;;;;;;19.77;7.75;;;11.10;99.90;;;;;;4859875;29;20120;-82
2023/05/28 05:35:49;;;;;;;19.25;7.28;;;11.20;99.90;;;;;;4875014;29;20454;-82
2023/05/28 05:38:14;;;;;;;22.45;7.22;;;11.30;99.90;;;;;;4874604;29;20058;-82
2023/05/28 05:40:40;;;;;;;22.75;7.07;;;11.80;99.90;;;;;;4874044;29;20057;-83
2023/05/28 05:43:06;;;;;;;18.92;7.22;;;11.40;99.90;;;;;;4859207;29;20049;-82
2023/05/28 05:45:31;;;;;;;20.52;7.38;;;12.10;99.90;;;;;;4874899;29;20046;-82
2023/05/28 05:47:57;;;;;;;19.92;7.10;;;11.50;99.90;;;;;;4873804;29;20147;-82
2023/05/28 05:50:22;;;;;;;21.70;6.95;;;12.20;99.90;;;;;;4860249;29;20045;-82
2023/05/28 05:52:48;;;;;;;18.77;6.70;;;12.20;99.90;;;;;;4874594;29;20474;-82
2023/05/28 05:55:14;;;;;;;18.42;6.88;;;11.70;99.90;;;;;;4859474;29;20054;-82
2023/05/28 05:57:41;;;;;;;18.13;6.80;;;12.30;99.90;;;;;;4860394;29;20124;-83
2023/05/28 06:00:08;;;;;;;17.83;6.47;;;11.30;99.90;;;;;;4863513;29;20050;-82
2023/05/28 06:02:35;;;;;;;23.08;6.80;;;11.90;99.90;;;;;;4863332;29;20053;-82
2023/05/28 06:05:03;;;;;;;21.23;7.13;;;12.50;99.90;;;;;;4862866;29;20105;-82
2023/05/28 06:07:29;;;;;;;19.60;6.50;;;12.10;99.90;;;;;;4862839;29;20057;-82
2023/05/28 06:09:56;;;;;;;17.92;7.00;;;12.20;99.90;;;;;;4863479;29;20053;-82
2023/05/28 06:12:21;;;;;;;21.48;7.13;;;12.60;99.90;;;;;;4862680;29;20137;-83
2023/05/28 06:14:47;;;;;;;17.80;6.65;;;12.50;99.90;;;;;;4863854;29;20132;-82
2023/05/28 06:17:13;;;;;;;17.25;6.65;;;13.10;99.90;;;;;;4861752;29;20052;-82
2023/05/28 06:19:39;;;;;;;18.33;6.40;;;12.80;99.90;;;;;;4864023;29;20097;-82
2023/05/28 06:22:05;;;;;;;18.83;6.47;;;12.90;99.90;;;;;;4864386;29;20481;-82
2023/05/28 06:24:30;;;;;;;14.65;5.70;;;13.80;99.90;;;;;;4863931;29;20050;-83
2023/05/28 06:26:57;;;;;;;15.48;6.20;;;13.20;99.90;;;;;;4864042;29;20056;-82
2023/05/28 06:29:22;;;;;;;17.25;6.43;;;13.10;99.90;;;;;;4877795;29;20497;-82
2023/05/28 06:31:48;;;;;;;16.60;6.25;;;13.20;99.90;;;;;;4863030;29;20045;-82
2023/05/28 06:34:13;;;;;;;16.17;5.90;;;13.30;99.90;;;;;;4863538;29;20112;-83
2023/05/28 06:36:39;;;;;;;18.42;6.95;;;13.40;99.90;;;;;;4862968;29;20081;-82
2023/05/28 06:39:05;;;;;;;14.63;5.10;;;14.30;99.90;;;;;;4863831;29;20128;-82
2023/05/28 06:41:31;;;;;;;17.00;5.47;;;13.60;99.90;;;;;;4863723;29;20382;-82
2023/05/28 06:43:56;;;;;;;16.83;5.90;;;13.80;99.90;;;;;;4863043;29;20049;-83
2023/05/28 06:46:22;;;;;;;13.50;5.00;;;14.90;99.90;;;;;;4877388;29;20057;-83
2023/05/28 06:48:48;;;;;;;14.13;4.93;;;14.10;99.90;;;;;;4863854;29;20128;-83
2023/05/28 06:51:13;;;;;;;16.67;5.10;;;14.80;99.90;;;;;;4862818;29;20080;-82
2023/05/28 06:53:39;;;;;;;15.60;5.65;;;14.40;99.90;;;;;;4862538;29;20483;-82
2023/05/28 06:56:06;;;;;;;16.83;5.13;;;14.60;99.90;;;;;;4862222;29;20055;-82
2023/05/28 06:58:31;;;;;;;14.82;4.97;;;14.70;99.90;;;;;;4876981;29;20045;-83
2023/05/28 07:01:01;;;;;;;13.75;5.40;;;15.30;99.90;;;;;;4863474;29;20120;-83
2023/05/28 07:03:27;;;;;;;13.52;5.25;;;14.80;99.90;;;;;;4861729;29;20050;-82
2023/05/28 07:05:52;;;;;;;13.55;5.50;;;14.80;99.90;;;;;;4861246;29;20113;-82
2023/05/28 07:08:18;;;;;;;17.85;5.35;;;15.60;99.90;;;;;;4862848;29;20053;-83
2023/05/28 07:10:43;;;;;;;15.10;5.53;;;14.80;99.90;;;;;;4876905;29;20081;-82
2023/05/28 07:13:09;;;;;;;15.88;5.18;;;15.30;99.90;;;;;;4876407;29;20042;-83
2023/05/28 07:15:35;;;;;;;16.38;5.65;;;15.00;99.90;;;;;;4877314;29;20497;-82
2023/05/28 07:18:01;;;;;;;13.02;5.00;;;15.10;99.90;;;;;;4862734;29;20402;-82
2023/05/28 07:20:26;;;;;;;14.15;4.80;;;15.70;99.90;;;;;;4860787;29;20094;-83
2023/05/28 07:22:52;;;;;;;16.80;5.60;;;15.50;99.90;;;;;;4861545;29;20050;-82
2023/05/28 07:25:18;;;;;;;14.50;5.15;;;15.60;99.90;;;;;;4862636;29;20153;-83
2023/05/28 07:27:43;;;;;;;13.30;4.85;;;15.60;99.90;;;;;;4861922;29;20595;-83
2023/05/28 07:30:09;;;;;;;14.00;4.78;;;15.70;99.90;;;;;;4876500;29;20105;-83
2023/05/28 07:32:35;;;;;;;13.63;5.07;;;15.90;99.90;;;;;;4862610;29;20049;-83
2023/05/28 07:35:01;;;;;;;16.13;4.90;;;16.10;99.90;;;;;;4861862;29;20513;-82
2023/05/28 07:37:26;;;;;;;15.05;5.30;;;16.10;99.90;;;;;;4862071;29;20149;-82
2023/05/28 07:39:52;;;;;;;14.18;5.03;;;16.20;99.90;;;;;;4861843;29;20055;-83
2023/05/28 07:42:17;;;;;;;13.65;5.07;;;16.30;99.90;;;;;;4862270;29;20085;-83
2023/05/28 07:44:43;;;;;;;14.07;5.18;;;16.40;99.90;;;;;;4876648;29;20056;-83
2023/05/28 07:47:08;;;;;;;14.32;5.25;;;16.60;99.90;;;;;;4860061;29;20058;-83
2023/05/28 07:49:34;;;;;;;16.90;5.32;;;16.70;99.90;;;;;;4862139;29;20128;-83
2023/05/28 07:52:00;;;;;;;14.43;4.65;;;16.80;99.90;;;;;;4862217;29;20124;-83
2023/05/28 07:54:26;;;;;;;15.85;4.85;;;17.40;99.90;;;;;;4862542;29;20045;-83
2023/05/28 07:56:51;;;;;;;13.05;4.93;;;17.00;99.90;;;;;;4878073;29;20055;-83
2023/05/28 07:59:18;;;;;;;14.73;5.25;;;17.10;99.90;;;;;;4860878;29;20109;-83
2023/05/28 08:01:43;;;;;;;12.55;5.05;;;17.50;99.90;;;;;;4860099;29;20057;-83
2023/05/28 08:04:09;;;;;;;14.52;4.82;;;17.30;99.90;;;;;;4876124;29;20507;-82
2023/05/28 08:06:34;;;;;;;15.48;5.00;;;17.40;99.90;;;;;;4862182;29;20124;-83
2023/05/28 08:09:00;;;;;;;12.88;4.63;;;18.00;99.90;;;;;;4859696;29;20109;-83
2023/05/28 08:11:26;;;;;;;13.35;4.50;;;17.60;99.90;;;;;;4861672;29;20053;-83
2023/05/28 08:13:51;;;;;;;15.43;4.75;;;17.90;99.90;;;;;;4862116;29;20038;-83
2023/05/28 08:16:17;;;;;;;16.30;4.75;;;18.50;99.90;;;;;;4860863;29;20053;-83
2023/05/28 08:18:43;;;;;;;15.20;5.10;;;18.00;99.90;;;;;;4876141;29;20049;-83
2023/05/28 08:21:10;;;;;;;14.45;4.93;;;18.10;99.90;;;;;;4860771;29;20080;-83
2023/05/28 08:23:35;;;;;;;13.73;5.10;;;18.50;99.90;;;;;;4861067;29;20077;-83
2023/05/28 08:26:02;;;;;;;17.20;5.45;;;18.30;99.90;;;;;;4861841;29;20049;-82
2023/05/28 08:28:28;;;;;;;16.10;4.97;;;18.50;99.90;;;;;;4860216;29;20052;-83
2023/05/28 08:30:57;;;;;;;14.90;4.97;;;18.40;99.90;;;;;;4859574;29;20045;-83
2023/05/28 08:33:23;;;;;;;13.40;4.75;;;18.60;99.90;;;;;;4861290;29;20053;-83
2023/05/28 08:35:49;;;;;;;14.52;4.88;;;18.70;99.90;;;;;;4875557;29;20077;-83
2023/05/28 08:38:15;;;;;;;15.48;4.85;;;18.70;99.90;;;;;;4860225;29;20151;-83
2023/05/28 08:40:43;;;;;;;16.85;5.25;;;19.00;99.90;;;;;;4861183;29;20046;-83
2023/05/28 08:43:08;;;;;;;13.90;5.28;;;18.60;99.90;;;;;;4859079;29;20105;-83
2023/05/28 08:45:36;;;;;;;15.50;5.40;;;18.70;99.90;;;;;;4861581;29;20053;-83
2023/05/28 08:48:05;;;;;;;15.98;4.68;;;18.80;99.90;;;;;;4861349;29;20060;-83
2023/05/28 08:50:32;;;;;;;12.63;4.75;;;18.90;99.90;;;;;;4860356;29;20060;-83
2023/05/28 08:53:01;;;;;;;14.30;4.93;;;19.10;99.90;;;;;;4861401;29;20089;-83
2023/05/28 08:55:27;;;;;;;13.30;4.53;;;19.30;99.90;;;;;;4859699;29;20068;-83
2023/05/28 08:57:53;;;;;;;18.00;5.07;;;19.50;99.90;;;;;;4860518;29;20045;-83
2023/05/28 09:00:21;;;;;;;15.25;5.00;;;19.50;99.90;;;;;;4875143;29;20482;-83
2023/05/28 09:02:47;;;;;;;13.75;4.88;;;19.60;99.90;;;;;;4860899;29;20565;-83
2023/05/28 09:05:12;;;;;;;13.30;4.55;;;20.00;99.90;;;;;;4858594;29;20133;-83
2023/05/28 09:07:38;;;;;;;15.63;4.68;;;19.70;99.90;;;;;;4875147;29;20045;-83
2023/05/28 09:10:04;;;;;;;12.50;4.38;;;19.80;99.90;;;;;;4859580;29;20390;-83
2023/05/28 09:12:30;;;;;;;11.15;4.55;;;19.90;99.90;;;;;;4874219;29;20083;-83
2023/05/28 09:14:55;;;;;;;10.63;4.30;;;19.90;99.90;;;;;;4860948;29;20046;-83
2023/05/28 09:17:35;;;;;;;12.25;4.50;;;20.10;99.90;;;;;;4860722;29;20045;-83
2023/05/28 09:20:01;;;;;;;12.90;4.82;;;20.20;99.90;;;;;;4859928;29;20493;-83
2023/05/28 09:22:27;;;;;;;12.43;4.20;;;20.40;99.90;;;;;;4859206;29;20053;-83
2023/05/28 09:24:54;;;;;;;13.43;4.35;;;20.20;99.90;;;;;;4860980;29;20046;-84
2023/05/28 09:27:21;;;;;;;14.70;4.68;;;20.20;99.90;;;;;;4858409;29;20121;-83
2023/05/28 09:29:47;;;;;;;13.50;5.38;;;20.40;99.90;;;;;;4859383;29;20060;-82
2023/05/28 09:32:21;;;;;;;14.73;5.30;;;20.60;99.90;;;;;;4859405;29;20053;-83
2023/05/28 09:34:50;;;;;;;14.63;5.93;;;20.70;99.90;;;;;;4860853;29;20116;-82
2023/05/28 09:37:19;;;;;;;13.98;5.03;;;20.70;99.90;;;;;;4860311;29;20594;-83
2023/05/28 09:39:45;;;;;;;16.85;5.57;;;20.60;99.90;;;;;;4858740;29;20061;-82
2023/05/28 09:42:12;;;;;;;13.68;5.28;;;20.80;99.90;;;;;;4859402;29;20048;-82
2023/05/28 09:44:39;;;;;;;13.75;5.20;;;20.90;99.90;;;;;;4859179;29;20132;-82
2023/05/28 09:47:18;;;;;;;13.52;5.25;;;21.10;99.90;;;;;;4858363;29;20051;-84
2023/05/28 09:49:46;;;;;;;13.15;5.28;;;21.10;98.90;;;;;;4859052;29;20056;-83
2023/05/28 09:52:21;;;;;;;14.05;4.90;;;21.10;99.70;;;;;;4859206;29;20106;-83
2023/05/28 09:54:59;;;;;;;17.10;5.88;;;21.20;99.80;;;;;;4858761;29;20057;-83
2023/05/28 09:57:33;;;;;;;12.65;5.78;;;21.30;98.20;;;;;;4858768;29;20836;-83
2023/05/28 10:00:01;;;;;;;;;;;21.30;99.40;;;;;;4860920;29;20048;-82
2023/05/28 10:02:38;;;;;;;13.55;5.53;;;21.30;99.50;;;;;;4859259;29;19924;-83
2023/05/28 10:05:08;;;;;;;12.23;5.32;;;21.40;99.40;;;;;;4860511;29;20046;-83
2023/05/28 10:07:37;;;;;;;14.30;5.68;;;21.50;99.00;;;;;;4858467;29;20061;-82
2023/05/28 10:10:03;;;;;;;14.48;5.72;;;21.50;99.10;;;;;;4874319;29;20056;-82
2023/05/28 10:12:30;;;;;;;11.65;5.18;;;21.50;99.00;;;;;;4858720;29;20048;-82
2023/05/28 10:14:56;;;;;;;13.63;5.70;;;21.40;98.70;;;;;;4858404;29;20046;-83
2023/05/28 10:17:22;;;;;;;14.30;6.22;;;21.70;98.80;;;;;;4858617;29;20052;-83
2023/05/28 10:19:49;;;;;;;12.07;5.40;;;21.70;98.70;;;;;;4858959;29;20104;-83
2023/05/28 10:22:16;;;;;;;13.65;5.85;;;21.80;99.00;;;;;;4859249;29;20054;-83
2023/05/28 10:24:43;;;;;;;13.73;5.40;;;22.60;99.00;;;;;;4860063;29;20502;-83
2023/05/28 10:27:16;;;;;;;12.75;5.45;;;22.50;98.50;;;;;;4858681;29;20042;-83
2023/05/28 10:29:46;;;;;;;13.18;5.47;;;22.30;97.80;;;;;;4858115;29;20495;-82
2023/05/28 10:32:18;;;;;;;13.48;5.57;;;22.30;97.60;;;;;;4859992;29;20068;-82
2023/05/28 10:34:44;;;;;;;13.48;5.72;;;22.40;96.80;;;;;;4873933;29;20056;-83
2023/05/28 10:37:11;;;;;;;14.15;5.35;;;22.30;97.50;;;;;;4858750;29;20470;-82
2023/05/28 10:39:45;;;;;;;12.82;5.75;;;22.50;97.40;;;;;;4858676;29;20053;-82
2023/05/28 10:42:16;;;;;;;13.70;5.53;;;22.50;96.50;;;;;;4859789;29;20050;-83
2023/05/28 10:45:00;;;;;;;15.02;5.68;;;22.50;96.60;;;;;;4860399;29;20046;-83
2023/05/28 10:47:32;;;;;;;12.93;5.18;;;22.60;96.70;;;;;;4863410;29;20409;-83
2023/05/28 10:50:00;;;;;;;12.93;5.90;;;22.70;96.30;;;;;;4862742;29;20078;-82
2023/05/28 10:52:26;;;;;;;14.18;5.13;;;22.70;96.10;;;;;;4862979;29;20049;-82
2023/05/28 10:54:53;;;;;;;14.90;5.65;;;22.80;96.00;;;;;;4877599;29;20041;-83
2023/05/28 10:57:20;;;;;;;14.63;5.18;;;22.70;95.90;;;;;;4862152;29;20045;-82
2023/05/28 11:00:00;;;;;;;13.90;6.05;;;22.80;96.00;;;;;;4863336;29;20049;-82
2023/05/28 11:02:33;;;;;;;13.40;5.53;;;22.80;95.40;;;;;;4861794;29;20045;-82
2023/05/28 11:05:01;;;;;;;12.38;5.10;;;23.00;95.50;;;;;;4876373;29;20450;-82
2023/05/28 11:07:32;;;;;;;14.70;4.88;;;23.10;95.80;;;;;;4861446;29;20401;-82
2023/05/28 11:09:59;;;;;;;11.75;4.90;;;23.20;94.70;;;;;;4877290;29;20459;-82
2023/05/28 11:12:30;;;;;;;11.25;4.70;;;23.20;94.60;;;;;;4860533;29;20049;-82
2023/05/28 11:14:55;;;;;;;12.35;5.53;;;23.10;94.20;;;;;;4861931;29;20050;-83
2023/05/28 11:17:21;;;;;;;11.70;4.70;;;23.00;94.10;;;;;;4862435;29;20446;-82
2023/05/28 11:19:48;;;;;;;11.95;4.72;;;23.20;94.30;;;;;;4861755;29;20096;-82
2023/05/28 11:22:17;;;;;;;11.38;4.57;;;23.30;93.80;;;;;;4876861;29;20405;-82
2023/05/28 11:25:01;;;;;;;12.25;4.88;;;23.30;93.40;;;;;;4862860;29;20049;-83
2023/05/28 11:27:28;;;;;;;12.95;4.85;;;23.40;93.10;;;;;;4861376;29;20124;-82
2023/05/28 11:29:59;;;;;;;12.15;4.68;;;23.40;93.10;;;;;;4862652;29;20068;-82
2023/05/28 11:32:25;;;;;;;13.10;4.82;;;23.50;92.90;;;;;;4860678;29;20069;-82
2023/05/28 11:34:53;;;;;;;11.63;4.70;;;23.50;92.40;;;;;;4861129;29;20050;-82
2023/05/28 11:37:27;;;;;;;10.95;4.95;;;23.70;92.80;;;;;;4861756;29;20486;-82
2023/05/28 11:39:54;;;;;;;12.20;4.70;;;23.60;91.60;;;;;;4861911;29;20053;-82
2023/05/28 11:42:21;;;;;;;12.38;4.97;;;23.70;91.70;;;;;;4862345;29;20046;-82
2023/05/28 11:44:48;;;;;;;11.38;5.07;;;23.70;91.70;;;;;;4861399;29;20418;-82
2023/05/28 11:47:14;;;;;;;12.65;4.72;;;24.00;92.00;;;;;;4861495;29;20041;-82
2023/05/28 11:49:41;;;;;;;12.07;4.38;;;24.10;91.40;;;;;;4862331;29;20407;-82
2023/05/28 11:52:11;;;;;;;11.07;4.65;;;24.20;91.30;;;;;;4860944;29;20105;-82
2023/05/28 11:54:37;;;;;;;12.25;4.57;;;24.20;90.90;;;;;;4860534;29;20060;-82
2023/05/28 11:57:03;;;;;;;12.60;4.10;;;24.40;91.10;;;;;;4861025;29;20086;-82
2023/05/28 11:59:29;;;;;;;10.20;3.97;;;24.70;91.20;;;;;;4862005;29;20401;-83
2023/05/28 12:02:11;;;;;;;10.98;4.40;;;24.90;91.10;;;;;;4860200;29;20049;-83
2023/05/28 12:04:37;;;;;;;12.15;4.50;;;25.00;90.00;;;;;;4862141;29;20124;-82
2023/05/28 12:07:03;;;;;;;10.02;4.40;;;24.90;90.10;;;;;;4876057;29;20471;-83
2023/05/28 12:09:28;;;;;;;10.07;4.13;;;24.80;89.70;;;;;;4861696;29;20049;-82
2023/05/28 12:12:03;;;;;;;9.73;4.63;;;25.00;90.10;;;;;;4861706;29;20052;-82
2023/05/28 12:14:33;;;;;;;10.45;4.50;;;25.20;89.70;;;;;;4860728;29;20053;-82
2023/05/28 12:17:09;;;;;;;11.38;4.18;;;25.30;88.30;;;;;;4861900;29;20478;-83
2023/05/28 12:19:36;;;;;;;10.57;4.28;;;25.50;88.50;;;;;;4860243;29;20510;-82
2023/05/28 12:22:13;;;;;;;11.77;4.38;;;25.30;86.30;;;;;;4861194;29;20446;-82
2023/05/28 12:24:39;;;;;;;11.55;4.45;;;25.10;86.20;;;;;;4860596;29;20049;-82
2023/05/28 12:27:05;;;;;;;9.30;4.05;;;24.90;86.10;;;;;;4861387;29;20447;-82
2023/05/28 12:29:32;;;;;;;11.95;4.50;;;25.00;86.60;;;;;;4860707;29;20413;-82
2023/05/28 12:31:59;;;;;;;10.30;4.30;;;25.10;86.00;;;;;;4860157;29;20061;-82
2023/05/28 12:34:25;;;;;;;10.77;4.32;;;25.20;85.30;;;;;;4861206;29;20045;-82
2023/05/28 12:36:50;;;;;;;9.85;4.10;;;25.10;85.00;;;;;;4859455;29;20371;-82
2023/05/28 12:39:16;;;;;;;10.93;4.22;;;25.10;84.10;;;;;;4861376;29;20500;-82
2023/05/28 12:41:42;;;;;;;10.98;4.10;;;25.10;84.00;;;;;;4860375;29;20053;-82
2023/05/28 12:44:07;;;;;;;12.02;4.15;;;25.00;83.60;;;;;;4894135;23;20657;-82
2023/05/28 12:46:33;;;;;;;9.73;4.20;;;25.00;84.00;;;;;;4898637;29;20049;-83